• Join FlightAware (Why Join?)
  • Login
  • US Flag GB Flag 
19:46 EDT


 

Airport Tracker/Info


-or-


 

Live Flight TrackerFlight Track Log ✈ UCA3597 ✈ 05-Oct-2013 ✈ KIAD - KBGM

Flight Track Log - Related Links

Times and Time Zones

All times are in EDT time to prevent confusion due to time zone crossing. See the UCA3597 flight status page for this flight to view local times or setup timezone preferences in your user account.

Time Position Orientation Groundspeed Altitude Reporting Facility
EDT Latitude Longitude Course Direction KTS MPH feet Rate Location/Type
17:58 39.2564 -77.3260 19° North  Level Estimated
17:59 39.3182 -77.2991 19° North  Level Estimated
18:00 39.3800 -77.2722 19° North  Level Estimated
18:01 39.4417 -77.2451 19° North  Level Estimated
18:02 39.5035 -77.2181 19° North  Level Estimated
18:03 39.5652 -77.1910 19° North  Level Estimated
18:04 39.6270 -77.1638 19° North  Level Estimated
18:05 39.6887 -77.1366 19° North  Level Estimated
18:06 39.7505 -77.1093 19° North  Level Estimated
18:07 39.8122 -77.0820 19° North  Level Estimated
18:08 39.8739 -77.0547 19° North  Level Estimated
18:09 39.9356 -77.0273 19° North  Level Estimated
18:10 39.9973 -76.9998 19° North  Level Estimated
18:11 40.0590 -76.9723 19° North  Level Estimated
18:12 40.1207 -76.9448 19° North  Level Estimated
18:13 40.1824 -76.9172 19° North  Level Estimated
18:14 40.2441 -76.8895 19° North  Level Estimated
18:15 40.3058 -76.8618 19° North  Level Estimated
18:16 40.3674 -76.8341 19° North  Level Estimated
18:17 40.4291 -76.8063 19° North  Level Estimated
18:18 40.4907 -76.7784 19° North  Level Estimated
18:19 40.5524 -76.7505 19° North  Level Estimated
18:20 40.6140 -76.7225 19° North  Level Estimated
18:21 40.6757 -76.6945 19° North  Level Estimated
18:22 40.7373 -76.6665 19° North  Level Estimated
18:23 40.7989 -76.6383 19° North  Level Estimated
18:24 40.8605 -76.6102 19° North  Level Estimated
18:25 40.9221 -76.5819 19° North  Level Estimated
18:26 40.9837 -76.5537 19° North  Level Estimated
18:27 41.0453 -76.5253 19° North  Level Estimated
18:28 41.1069 -76.4970 19° North  Level Estimated
18:29 41.1685 -76.4685 19° North  Level Estimated
18:30 41.2301 -76.4400 19° North  Level Estimated
18:31 41.2916 -76.4115 19° North  Level Estimated
18:32 41.3532 -76.3829 19° North  Level Estimated
18:33 41.4147 -76.3543 19° North  Level Estimated
18:34 41.4763 -76.3256 19° North  Level Estimated
18:35 41.5378 -76.2968 19° North  Level Estimated
18:36 41.5993 -76.2680 19° North  Level Estimated
18:37 41.6609 -76.2391 19° North  Level Estimated
18:38 41.7224 -76.2102 19° North  Level Estimated
18:39 41.7839 -76.1812 19° North  Level Estimated
18:40 41.8454 -76.1522 19° North  Level Estimated
18:41 41.9069 -76.1231 19° North  Level Estimated
18:42 41.9684 -76.0940 19° North  Level Estimated
18:43 42.0299 -76.0648 19° North  Level Estimated
18:44 42.0913 -76.0355 19° North  Level Estimated
18:45 42.1528 -76.0062 19° North  Level Estimated
18:46 42.2084 -75.9796 19° North  Level Estimated
18:47 42.2084 -75.9796 35° Northeast  Level Estimated
18:48 42.2084 -75.9796 35° Northeast  Level Estimated
18:49 42.2084 -75.9796 35° Northeast  Level Estimated
18:50 42.2084 -75.9796 35° Northeast  Level Estimated
18:51 42.2084 -75.9796 35° Northeast  Level Estimated
18:52 42.2084 -75.9796 35° Northeast  Level Estimated
18:53 42.2084 -75.9796 35° Northeast  Level Estimated
18:54 42.2084 -75.9796 35° Northeast  Level Estimated
18:55 42.2084 -75.9796 35° Northeast  Level Estimated
18:56 42.2084 -75.9796 35° Northeast  Level Estimated
18:57 42.2084 -75.9796 35° Northeast  Level Estimated
18:58 42.2084 -75.9796 35° Northeast  Level Estimated
18:59 42.2084 -75.9796 35° Northeast  Level Estimated
19:00 42.2084 -75.9796 35° Northeast  Level Estimated
19:01 42.2084 -75.9796 35° Northeast  Level Estimated
19:02 42.2084 -75.9796 35° Northeast  Level Estimated